Unionville, Ohio
Current Conditions -  °F | °C
As of 3:14 AM on Thursday 29 Jan 2015 (Local Time) from KMRT Reporting Station
Clear Clear  
Wind Chill: 15°   Ceiling: Unl
Heat Index: 27°   Visibility: 10mi
Dew Point: 17°   Wind: 15mph
Humidity: 67%   Direction: 180°S
Pressure: 30.05"   Gusts: 21mph
Location:  40.14°N, 83.34°W
Report Text: KMRT 290814Z AUTO 18013G18KT 10SM CLR M03/M08 A3005 RMK AO2 T10281081
Loading
Personal Weather Stations






























Interactive Weather Map New forecast layout! Learn more

10-Day Weather Forecast

Advertisements
Track Severe Weather on mobile